Latest Weather Observations for Hamilton

IDV60801

Issued at 6:05 am EST Sunday 31 August 2014 (issued every 30 minutes, with the page automatically refreshed every 10 minutes)

About weather observations | Map of weather stations | Latest weather observations for VIC | Other Formats
Station Details ID: 090173 Name: HAMILTON AIRPORT Lat: -37.65 Lon: 142.06 Height: 241.1 m
Data from the previous 72 hours. | See also: Recent months at Hamilton
Date/Time
EST
Temp
°C
App
Temp
°C
Dew
Point
Rel
Hum
%
Delta-T
°C
Wind Press
QNH
hPa
Press
MSL
hPa
Rain
since 9 am
mm
Dir
 
Spd
km/h
Gust
km/h
Spd
kts
Gust
kts
31/06:00am 6.4 3.2 4.9 90 0.7 N 11 13 6 7 1016.7 1017.0 0.0
31/05:30am 7.0 3.9 5.5 90 0.7 N 11 13 6 7 1016.8 1017.1 0.0
31/05:00am 7.6 3.4 5.7 88 0.9 N 17 19 9 10 1016.7 1017.0 0.0
31/04:30am 7.7 3.8 5.5 86 1.0 N 15 17 8 9 1016.8 1017.1 0.0
31/04:00am 7.8 4.3 5.6 86 1.0 N 13 17 7 9 1017.0 1017.3 0.0
31/03:30am 7.6 4.2 5.7 88 0.9 N 13 15 7 8 1017.3 1017.6 0.0
31/03:00am 8.0 5.0 6.0 87 0.9 N 11 13 6 7 1017.5 1017.8 0.0
31/02:30am 8.1 5.5 6.2 88 0.9 N 9 11 5 6 1017.7 1018.0 0.0
31/02:00am 7.9 4.9 6.2 89 0.8 N 11 13 6 7 1018.0 1018.3 0.0
31/01:30am 7.6 4.6 6.1 90 0.7 N 11 13 6 7 1018.3 1018.7 0.0
31/01:00am 7.5 4.0 5.6 88 0.9 NNE 13 13 7 7 1018.6 1019.0 0.0
31/12:30am 8.0 4.9 5.6 85 1.1 NNE 11 11 6 6 1018.9 1019.3 0.0
31/12:00am 9.4 6.4 6.1 80 1.5 NNE 11 11 6 6 1019.0 1019.4 0.0
 
Date/Time
EST
Temp
°C
App
Temp
°C
Dew
Point
Rel
Hum
%
Delta-T
°C
Wind Press
QNH
hPa
Press
MSL
hPa
Rain
since 9 am
mm
Dir
 
Spd
km/h
Gust
km/h
Spd
kts
Gust
kts
30/11:30pm 9.1 6.1 6.2 82 1.4 NNE 11 13 6 7 1019.2 1019.6 0.0
30/11:00pm 9.6 6.4 7.0 84 1.2 NNE 13 15 7 8 1019.4 1019.8 0.0
30/10:30pm 9.4 6.3 7.2 86 1.1 NNE 13 15 7 8 1019.9 1020.2 0.0
30/10:00pm 10.6 8.1 8.0 84 1.3 N 11 11 6 6 1020.4 1020.7 0.0
30/09:30pm 9.8 7.6 7.9 88 0.9 N 9 11 5 6 1020.7 1021.0 0.0
30/09:00pm 9.8 6.7 7.1 83 1.3 N 13 13 7 7 1020.8 1021.1 0.0
30/08:30pm 12.4 10.0 8.5 77 2.0 N 11 13 6 7 1021.0 1021.3 0.0
30/08:00pm 12.5 9.8 9.1 80 1.7 N 13 13 7 7 1020.9 1021.2 0.0
30/07:30pm 11.3 8.9 8.5 83 1.4 N 11 13 6 7 1020.9 1021.2 0.0
30/07:00pm 12.0 9.6 8.7 80 1.7 N 11 11 6 6 1020.9 1021.2 0.0
30/06:30pm 14.3 12.6 9.7 74 2.4 N 9 9 5 5 1020.9 1021.2 0.0
30/06:00pm 14.1 11.7 9.9 76 2.2 NNW 13 13 7 7 1020.8 1021.1 0.0
30/05:30pm 16.7 15.0 11.2 70 3.0 NNW 11 13 6 7 1020.7 1021.0 0.0
30/05:00pm 18.1 16.0 11.0 63 3.9 NW 13 15 7 8 1020.8 1021.1 0.0
30/04:30pm 18.5 16.4 11.1 62 4.1 NNW 13 17 7 9 1020.8 1021.1 0.0
30/04:00pm 18.6 16.0 10.7 60 4.3 NNW 15 20 8 11 1020.9 1021.2 0.0
30/03:30pm 18.7 15.4 11.0 61 4.2 NNW 19 20 10 11 1021.0 1021.3 0.0
30/03:00pm 18.6 15.4 11.2 62 4.1 NNW 19 24 10 13 1021.1 1021.4 0.0
30/02:30pm 18.6 15.4 11.9 65 3.7 NNW 20 26 11 14 1021.4 1021.7 0.0
30/02:00pm 18.1 14.5 10.7 62 4.0 NNW 20 24 11 13 1021.7 1022.1 0.0
30/01:30pm 17.8 14.4 11.4 66 3.5 NNW 20 28 11 15 1022.1 1022.5 0.0
30/01:00pm 17.6 14.2 11.2 66 3.5 NNW 20 26 11 14 1022.4 1022.8 0.0
30/12:30pm 16.9 13.9 11.8 72 2.8 NNW 19 24 10 13 1023.0 1023.4 0.0
30/12:00pm 16.6 13.5 11.7 73 2.7 NW 19 26 10 14 1023.4 1023.8 0.0
30/11:30am 15.9 12.5 11.1 73 2.6 NNW 20 26 11 14 1023.5 1023.9 0.0
30/11:00am 15.4 11.9 10.8 74 2.5 N 20 26 11 14 1023.6 1024.0 0.0
30/10:30am 14.0 10.3 10.2 78 2.0 N 20 24 11 13 1023.8 1024.2 0.0
30/10:00am 12.9 9.2 10.1 83 1.5 N 20 24 11 13 1024.3 1024.6 0.0
30/09:30am 11.7 8.0 9.6 87 1.1 N 19 24 10 13 1024.6 1024.9 0.0
30/09:00am 10.3 7.5 10.1 99 0.1 N 15 20 8 11 1024.7 1025.0 0.2
30/08:30am 8.8 5.7 8.7 99 0.0 N 15 20 8 11 1024.8 1025.1 0.2
30/08:00am 7.4 4.7 7.3 99 0.0 N 11 13 6 7 1025.0 1025.3 0.2
30/07:30am 6.2 2.5 6.1 99 0.0 N 15 17 8 9 1024.9 1025.2 0.2
30/07:00am 5.1 1.5 5.0 99 0.0 N 13 15 7 8 1024.8 1025.1 0.2
30/06:30am 4.6 1.3 4.5 99 0.0 N 11 13 6 7 1024.7 1025.0 0.2
30/06:00am 5.0 1.4 4.9 99 0.0 NNE 13 13 7 7 1024.4 1024.7 0.2
30/05:35am 4.9 2.0 4.8 99 0.0 NE 9 11 5 6 1024.4 1024.7 0.2
30/05:30am 4.5 1.6 4.4 99 0.0 NE 9 11 5 6 1024.4 1024.7 0.2
30/05:00am 3.9 0.8 3.8 99 0.0 E 9 11 5 6 1024.4 1024.7 0.0
30/04:30am 4.2 0.4 4.1 99 0.0 E 13 15 7 8 1024.2 1024.5 0.0
30/04:00am 4.4 0.7 4.3 99 0.0 ESE 13 13 7 7 1024.3 1024.6 0.0
30/03:30am 5.1 1.1 5.0 99 0.0 ESE 15 17 8 9 1024.5 1024.8 0.0
30/03:00am 5.1 1.5 5.0 99 0.0 ESE 13 15 7 8 1024.8 1025.1 0.0
30/02:30am 5.3 1.7 5.2 99 0.0 ESE 13 15 7 8 1025.1 1025.5 0.0
30/02:00am 5.8 2.0 5.7 99 0.0 ESE 15 17 8 9 1025.3 1025.7 0.0
30/01:41am 6.4 2.3 6.3 99 0.0 ESE 17 19 9 10 1025.6 1026.0 0.0
30/01:40am 6.4 2.3 6.3 99 0.0 ESE 17 19 9 10 1025.6 1026.0 0.0
30/01:30am 6.8 2.8 6.7 99 0.0 E 17 19 9 10 1025.6 1026.0 0.0
30/01:15am 6.7 3.1 6.6 99 0.0 ESE 15 17 8 9 1025.7 1026.1 0.0
30/01:00am 6.9 3.3 6.8 99 0.0 ESE 15 17 8 9 1025.8 1026.2 0.0
30/12:30am 7.4 3.5 7.3 99 0.0 E 17 20 9 11 1025.9 1026.3 0.0
30/12:00am 7.7 3.9 7.6 99 0.0 E 17 19 9 10 1026.3 1026.7 0.0
 
Date/Time
EST
Temp
°C
App
Temp
°C
Dew
Point
Rel
Hum
%
Delta-T
°C
Wind Press
QNH
hPa
Press
MSL
hPa
Rain
since 9 am
mm
Dir
 
Spd
km/h
Gust
km/h
Spd
kts
Gust
kts
29/11:30pm 7.9 4.2 7.8 99 0.0 E 17 19 9 10 1026.5 1026.9 0.0
29/11:00pm 8.3 4.7 8.2 99 0.0 E 17 19 9 10 1026.6 1027.0 0.0
29/10:30pm 8.8 5.3 8.7 99 0.0 E 17 20 9 11 1026.9 1027.3 0.0
29/10:00pm 9.5 6.2 9.4 99 0.0 E 17 22 9 12 1026.9 1027.3 0.0
29/09:30pm 9.1 5.7 9.0 99 0.0 E 17 20 9 11 1027.1 1027.5 0.0
29/09:00pm 8.9 5.4 8.8 99 0.0 ESE 17 19 9 10 1027.0 1027.4 0.0
29/08:30pm 8.5 5.3 8.4 99 0.0 ESE 15 17 8 9 1027.0 1027.4 0.0
29/08:00pm 8.3 4.9 7.7 96 0.3 ESE 15 17 8 9 1027.1 1027.5 0.0
29/07:30pm 9.3 6.4 8.2 93 0.5 ESE 13 15 7 8 1027.1 1027.5 0.0
29/07:00pm 10.7 8.4 9.1 90 0.8 SE 11 13 6 7 1026.9 1027.3 0.0
29/06:30pm 11.6 9.3 9.0 84 1.3 SE 11 13 6 7 1026.8 1027.2 0.0
29/06:00pm 13.6 12.1 10.6 82 1.6 SE 9 11 5 6 1026.6 1027.0 0.0
29/05:30pm 15.8 14.7 12.0 78 2.1 SE 9 11 5 6 1026.6 1027.0 0.0
29/05:00pm 17.4 16.1 11.2 67 3.4 SE 9 11 5 6 1026.6 1027.0 0.0
29/04:30pm 17.9 16.1 11.0 64 3.8 SE 11 13 6 7 1026.6 1027.0 0.0
29/04:00pm 18.4 16.8 11.7 65 3.7 SE 11 15 6 8 1026.7 1027.1 0.0
29/03:30pm 18.7 16.9 12.0 65 3.7 SSE 13 15 7 8 1026.6 1027.0 0.0
29/03:00pm 18.6 17.0 11.7 64 3.8 SE 11 15 6 8 1026.9 1027.3 0.0
29/02:30pm 18.4 16.4 10.3 59 4.4 SE 11 17 6 9 1027.1 1027.5 0.0
29/02:00pm 18.8 17.2 11.4 62 4.1 SE 11 15 6 8 1027.3 1027.7 0.0
29/01:30pm 18.3 16.7 11.6 65 3.7 ESE 11 15 6 8 1027.4 1027.8 0.0
29/01:00pm 18.2 17.5 12.0 67 3.4 SE 7 9 4 5 1027.8 1028.2 0.0
29/12:30pm 17.5 16.8 12.0 70 3.1 ESE 7 9 4 5 1028.4 1028.7 0.0
29/12:00pm 16.6 15.5 10.7 68 3.2 SE 7 11 4 6 1028.7 1029.1 0.0
29/11:30am 16.4 15.8 11.6 73 2.6 SE 6 11 3 6 1028.9 1029.3 0.0
29/11:00am 15.2 13.6 10.2 72 2.6 ESE 9 11 5 6 1029.2 1029.6 0.0
29/10:30am 14.6 12.8 10.8 78 2.0 ESE 11 13 6 7 1029.4 1029.8 0.0
29/10:00am 13.6 13.0 13.4 99 0.1 ESE 9 11 5 6 1029.5 1029.9 0.0
29/09:30am 12.8 12.3 12.8 100 0.0 ESE 7 9 4 5 1029.6 1030.0 0.0
29/09:00am 11.5 12.0 11.5 100 0.0 CALM 0 7 0 4 1029.5 1029.9 0.0
29/08:30am 10.4 10.6 10.4 100 0.0 CALM 0 0 0 0 1029.4 1029.8 0.0
29/08:08am 7.9 7.4 7.8 99 0.0 CALM 0 0 0 0 1029.1 1029.5 0.0
29/08:00am 7.5 6.9 7.4 99 0.0 CALM 0 0 0 0 1029.1 1029.5 0.0
29/07:30am 5.8 4.1 5.7 99 0.0 NE 4 7 2 4 1028.9 1029.3 0.0
29/07:00am 5.7 4.7 5.6 99 0.0 CALM 0 0 0 0 1028.6 1029.0 0.0
29/06:30am 5.9 3.8 5.8 99 0.0 ENE 6 7 3 4 1028.4 1028.7 0.0
29/06:00am 6.2 5.3 6.1 99 0.0 CALM 0 0 0 0 1028.0 1028.4 0.0
29/05:30am 6.2 5.3 6.1 99 0.0 CALM 0 0 0 0 1027.9 1028.3 0.0
29/05:00am 6.0 5.1 5.9 99 0.0 CALM 0 0 0 0 1027.8 1028.2 0.0
29/04:30am 5.6 4.6 5.5 99 0.0 CALM 0 0 0 0 1027.7 1028.1 0.0
29/04:00am 4.8 2.9 4.7 99 0.0 N 4 6 2 3 1027.8 1028.2 0.0
29/03:30am 5.5 4.5 5.4 99 0.0 CALM 0 9 0 5 1027.6 1028.0 0.0
29/03:04am 6.7 5.9 6.6 99 0.0 CALM 0 0 0 0 1027.9 1028.3 0.0
29/03:00am 6.8 6.0 6.7 99 0.0 CALM 0 0 0 0 1027.9 1028.3 0.0
29/02:30am 7.4 6.8 7.3 99 0.0 CALM 0 6 0 3 1028.4 1028.7 0.0
29/02:00am 7.6 5.9 7.5 99 0.0 E 6 6 3 3 1028.5 1028.8 0.0
29/01:30am 7.0 5.0 6.9 99 0.0 E 7 7 4 4 1028.7 1029.1 0.0
29/01:00am 7.5 6.9 7.4 99 0.0 CALM 0 0 0 0 1028.9 1029.3 0.0
29/12:58am 7.4 6.8 7.3 99 0.0 CALM 0 0 0 0 1028.9 1029.3 0.0
29/12:32am 7.2 5.8 7.1 99 0.0 ENE 4 6 2 3 1029.0 1029.4 0.0
29/12:30am 7.2 5.4 7.1 99 0.0 ENE 6 6 3 3 1029.0 1029.4 0.0
29/12:22am 7.0 5.1 6.9 99 0.0 ENE 6 7 3 4 1028.9 1029.3 0.0
29/12:02am 6.5 4.3 6.4 99 0.0 ENE 7 9 4 5 1028.9 1029.3 0.0
29/12:00am 6.6 4.1 6.5 99 0.0 ENE 9 9 5 5 1028.9 1029.3 0.0
 
Date/Time
EST
Temp
°C
App
Temp
°C
Dew
Point
Rel
Hum
%
Delta-T
°C
Wind Press
QNH
hPa
Press
MSL
hPa
Rain
since 9 am
mm
Dir
 
Spd
km/h
Gust
km/h
Spd
kts
Gust
kts
28/11:32pm 7.6 5.3 7.5 99 0.0 ENE 9 11 5 6 1028.9 1029.3 0.0
28/11:30pm 7.7 5.4 7.6 99 0.0 ENE 9 11 5 6 1028.9 1029.3 0.0
28/11:06pm 6.8 4.3 6.7 99 0.0 E 9 9 5 5 1029.0 1029.4 0.0
28/11:00pm 7.4 5.1 7.3 99 0.0 ENE 9 11 5 6 1029.0 1029.4 0.0
28/10:30pm 7.6 5.3 7.5 99 0.0 E 9 11 5 6 1029.1 1029.5 0.0
28/10:16pm 7.5 4.8 7.4 99 0.0 ESE 11 11 6 6 1029.1 1029.5 0.0
28/10:00pm 7.7 5.1 7.6 99 0.0 SE 11 13 6 7 1029.1 1029.5 0.0
28/09:47pm 8.0 5.4 7.9 99 0.0 ESE 11 13 6 7 1029.2 1029.6 0.0
28/09:30pm 8.3 5.8 8.2 99 0.0 SE 11 13 6 7 1029.1 1029.5 0.0
28/09:00pm 8.8 6.4 8.7 99 0.0 SE 11 13 6 7 1029.0 1029.4 0.0
28/08:30pm 9.1 7.2 9.0 99 0.0 SE 9 11 5 6 1028.9 1029.3 0.0
28/08:00pm 10.1 7.9 9.3 95 0.4 SSE 11 13 6 7 1028.9 1029.3 0.0
28/07:30pm 11.3 8.8 8.3 82 1.5 SSE 11 13 6 7 1028.5 1028.8 0.0
28/07:00pm 13.4 11.7 9.8 79 1.9 SSW 9 9 5 5 1028.0 1028.4 0.0
28/06:30pm 13.4 11.7 9.8 79 1.9 S 9 9 5 5 1027.9 1028.3 0.0
28/06:00pm 15.4 13.9 10.4 72 2.6 W 9 11 5 6 1027.7 1028.1 0.0
28/05:30pm 17.5 16.6 11.5 68 3.3 WSW 7 9 4 5 1027.5 1027.9 0.0
28/05:00pm 18.0 16.3 11.1 64 3.8 W 11 13 6 7 1027.3 1027.7 0.0
28/04:30pm 18.3 16.1 10.9 62 4.0 WSW 13 19 7 10 1027.3 1027.7 0.0
28/04:00pm 18.6 15.6 10.7 60 4.3 WSW 17 19 9 10 1027.2 1027.6 0.0
28/03:30pm 18.9 16.1 11.2 61 4.2 W 17 22 9 12 1027.2 1027.6 0.0
28/03:00pm 19.1 17.3 10.9 59 4.5 W 11 15 6 8 1027.2 1027.6 0.0
28/02:30pm 18.9 16.8 11.0 60 4.3 WNW 13 19 7 10 1027.1 1027.5 0.0
28/02:00pm 18.7 16.9 12.0 65 3.7 NNW 13 19 7 10 1027.2 1027.6 0.0
28/01:30pm 18.6 16.1 11.2 62 4.1 WNW 15 20 8 11 1027.4 1027.8 0.0
28/01:00pm 18.1 15.8 11.9 67 3.4 WNW 15 19 8 10 1027.9 1028.3 0.0
28/12:30pm 18.1 15.6 11.2 64 3.8 W 15 20 8 11 1028.3 1028.6 0.0
28/12:00pm 17.5 15.2 10.4 63 3.8 NW 13 19 7 10 1028.6 1029.0 0.0
28/11:30am 17.3 15.1 12.0 71 2.9 NW 15 20 8 11 1028.9 1029.3 0.0
28/11:00am 16.5 14.3 12.1 75 2.4 NNW 15 19 8 10 1029.1 1029.5 0.0
28/10:30am 15.2 13.4 12.0 81 1.8 NNW 13 17 7 9 1029.2 1029.6 0.0
28/10:00am 13.9 11.1 11.4 85 1.3 N 17 19 9 10 1029.4 1029.8 0.0
28/09:30am 12.4 10.6 12.2 99 0.1 N 13 15 7 8 1029.4 1029.8 0.0
28/09:00am 9.7 7.6 9.6 99 0.1 N 11 13 6 7 1029.3 1029.7 0.0
28/08:30am 7.5 5.2 7.4 99 0.0 N 9 9 5 5 1029.2 1029.6 0.0
28/08:00am 7.3 4.9 7.2 99 0.0 N 9 11 5 6 1029.0 1029.4 0.0
28/07:30am 5.9 3.2 5.8 99 0.0 N 9 11 5 6 1028.8 1029.2 0.0
28/07:00am 5.1 2.3 5.0 99 0.0 N 9 9 5 5 1028.5 1028.8 0.0
28/06:30am 4.8 1.5 4.7 99 0.0 N 11 13 6 7 1028.3 1028.6 0.0
28/06:21am 4.4 1.1 4.3 99 0.0 N 11 13 6 7 1028.3 1028.6 0.0

Other Formats:

Comma delimited format used in spreadsheet applications
http://www.bom.gov.au/fwo/IDV60801/IDV60801.94829.axf

JavaScript Object Notation format (JSON) in row-major order
http://www.bom.gov.au/fwo/IDV60801/IDV60801.94829.json